Time;durP1;ratioP1;P1;durP2;ratioP2;P2;SDS_P1;SDS_P2;PMS_P1;PMS_P2;Temp;Humidity;BMP_temperature;BMP_pressure;BME280_temperature;BME280_humidity;BME280_pressure;Samples;Min_cycle;Max_cycle;Signal;HPM_P1;HPM_P2
2022/04/12 00:00:57;;;;;;;;;6.00;2.00;;;;;18.49;44.65;100319.56;4996100;28;45412;-88
2022/04/12 00:03:23;;;;;;;;;1.33;1.33;;;;;18.27;44.86;100288.13;4993760;27;46276;-88
2022/04/12 00:05:48;;;;;;;;;1.00;1.00;;;;;18.44;45.09;100308.31;4995225;27;45388;-88
2022/04/12 00:08:14;;;;;;;;;3.33;2.00;;;;;18.18;45.40;100278.94;4995754;28;45388;-89
2022/04/12 00:10:39;;;;;;;;;2.00;2.00;;;;;18.16;44.99;100277.38;4995064;28;45314;-88
2022/04/12 00:13:05;;;;;;;;;2.00;2.00;;;;;18.39;45.42;100315.94;4995216;28;45409;-88
2022/04/12 00:15:30;;;;;;;;;2.00;2.00;;;;;18.35;45.08;100316.19;4994849;28;45376;-88
2022/04/12 00:20:41;;;;;;;;;2.00;2.00;;;;;18.09;45.59;100279.72;4986577;28;45357;-88
2022/04/12 00:23:06;;;;;;;;;4.00;3.00;;;;;17.99;45.46;100259.91;4995145;27;46014;-88
2022/04/12 00:25:32;;;;;;;;;2.00;2.00;;;;;18.27;45.92;100313.25;4995402;28;45341;-88
2022/04/12 00:27:59;;;;;;;;;2.33;1.33;;;;;18.24;45.53;100316.22;4995325;28;45263;-89
2022/04/12 00:30:26;;;;;;;;;2.00;2.00;;;;;17.93;45.82;100262.13;4995475;28;45545;-88
2022/04/12 00:32:52;;;;;;;;;2.00;2.00;;;;;18.21;45.71;100321.84;4994456;27;47291;-88
2022/04/12 00:35:19;;;;;;;;;1.00;1.00;;;;;18.04;46.05;100306.22;4994921;28;45183;-88
2022/04/12 00:37:45;;;;;;;;;1.67;1.67;;;;;18.01;45.95;100307.31;4995118;28;45499;-88
2022/04/12 00:40:11;;;;;;;;;2.33;0.00;;;;;18.09;46.34;100310.22;4995277;28;45549;-88
2022/04/12 00:42:37;;;;;;;;;1.00;1.00;;;;;18.13;46.14;100321.63;4994606;28;45473;-88
2022/04/12 00:45:03;;;;;;;;;1.33;1.33;;;;;18.09;45.85;100310.22;4994799;28;45444;-88
2022/04/12 00:47:28;;;;;;;;;2.00;2.00;;;;;18.11;45.94;100308.28;4995227;28;45324;-88
2022/04/12 00:49:54;;;;;;;;;1.00;1.00;;;;;18.11;46.19;100308.28;4995477;28;45460;-88
2022/04/12 00:52:19;;;;;;;;;2.00;2.00;;;;;18.07;45.97;100300.56;4994374;28;46144;-88
2022/04/12 00:54:45;;;;;;;;;2.00;2.00;;;;;17.79;46.35;100254.25;4994708;28;45573;-88
2022/04/12 00:57:12;;;;;;;;;2.33;2.33;;;;;17.72;45.94;100253.91;4995017;28;45510;-88
2022/04/12 00:59:38;;;;;;;;;3.00;1.67;;;;;17.91;46.22;100277.56;4994613;28;45535;-88
2022/04/12 01:02:05;;;;;;;;;1.67;1.67;;;;;18.08;46.19;100307.69;4994575;28;45344;-88
2022/04/12 01:04:31;;;;;;;;;2.00;2.00;;;;;18.03;46.50;100304.50;4994589;28;45480;-88
2022/04/12 01:06:56;;;;;;;;;2.00;2.00;;;;;17.99;46.85;100289.56;4994355;28;45361;-88
2022/04/12 01:09:25;;;;;;;;;1.00;1.00;;;;;17.97;46.44;100300.47;4994941;28;45637;-88
2022/04/12 01:11:51;;;;;;;;;3.00;3.00;;;;;17.95;46.79;100307.81;4994198;28;46124;-88
2022/04/12 01:14:16;;;;;;;;;1.00;1.00;;;;;17.68;46.50;100268.63;4994632;28;45337;-88
2022/04/12 01:16:42;;;;;;;;;1.33;1.33;;;;;17.95;46.74;100294.34;4994742;27;45400;-88
2022/04/12 01:19:07;;;;;;;;;2.67;2.67;;;;;17.96;46.70;100295.19;4994782;28;45221;-88
2022/04/12 01:21:39;;;;;;;;;2.00;2.00;;;;;17.95;46.23;100298.88;4994136;28;49265;-88
2022/04/12 01:24:06;;;;;;;;;1.67;1.33;;;;;17.84;46.64;100283.56;4994025;28;45416;-88
2022/04/12 01:26:32;;;;;;;;;2.00;2.00;;;;;17.72;46.59;100263.81;4994642;28;45360;-87
2022/04/12 01:28:58;;;;;;;;;1.67;1.33;;;;;17.63;46.37;100243.00;4994389;28;45309;-88
2022/04/12 01:31:25;;;;;;;;;2.00;2.00;;;;;17.70;46.34;100255.88;4997028;28;45915;-88
2022/04/12 01:34:12;;;;;;;;;2.00;2.00;;;;;17.89;46.10;100292.16;4996617;28;45344;-87
2022/04/12 01:36:37;;;;;;;;;1.00;1.00;;;;;17.74;46.16;100269.94;4997092;27;45322;-88
2022/04/12 01:39:03;;;;;;;;;1.00;1.00;;;;;17.83;46.45;100292.66;4996646;27;45426;-88
2022/04/12 01:41:29;;;;;;;;;2.33;2.33;;;;;17.80;47.22;100295.56;4997060;27;45818;-88
2022/04/12 01:43:54;;;;;;;;;4.00;2.00;;;;;17.78;46.86;100298.38;4995872;27;45590;-88
2022/04/12 01:46:20;;;;;;;;;3.33;2.67;;;;;17.74;46.95;100302.28;4996245;27;45259;-88
2022/04/12 01:48:47;;;;;;;;;1.33;1.33;;;;;17.82;46.78;100313.38;4996475;28;45522;-88
2022/04/12 01:51:12;;;;;;;;;2.67;2.33;;;;;17.63;46.85;100291.50;4988334;27;46138;-88
2022/04/12 01:53:39;;;;;;;;;4.00;2.00;;;;;17.84;46.87;100322.19;4995947;27;45334;-88
2022/04/12 01:56:05;;;;;;;;;2.00;2.00;;;;;17.83;46.88;100316.91;4995803;27;45815;-88
2022/04/12 01:58:32;;;;;;;;;2.67;2.67;;;;;17.36;47.21;100246.97;4996316;27;45508;-88
2022/04/12 02:00:58;;;;;;;;;2.00;2.00;;;;;17.51;47.47;100277.19;4995847;27;45474;-88
2022/04/12 02:03:23;;;;;;;;;3.00;2.00;;;;;17.56;47.29;100284.91;4994626;28;45356;-88
2022/04/12 02:05:49;;;;;;;;;2.00;2.00;;;;;17.71;47.46;100307.94;4996156;28;45415;-88
2022/04/12 02:08:14;;;;;;;;;3.33;2.33;;;;;17.68;47.60;100306.34;4995985;28;45499;-88
2022/04/12 02:10:39;;;;;;;;;3.33;3.33;;;;;17.63;47.15;100305.00;4995620;28;46414;-88
2022/04/12 02:13:05;;;;;;;;;1.00;1.00;;;;;17.59;47.82;100300.84;4995245;28;45368;-88
2022/04/12 02:15:31;;;;;;;;;3.00;1.67;;;;;17.53;47.90;100291.41;4996165;27;45313;-88
2022/04/12 02:17:56;;;;;;;;;3.00;3.00;;;;;17.28;47.67;100258.34;4995793;27;45533;-88
2022/04/12 02:20:22;;;;;;;;;2.67;2.67;;;;;17.49;47.79;100290.81;4995528;27;45538;-88
2022/04/12 02:22:47;;;;;;;;;3.00;3.00;;;;;17.40;47.73;100279.91;4995799;28;45333;-88
2022/04/12 02:25:13;;;;;;;;;3.33;2.00;;;;;17.51;48.04;100290.66;4995415;27;45470;-88
2022/04/12 02:27:38;;;;;;;;;3.00;3.00;;;;;17.50;48.04;100281.72;4996398;27;45477;-88
2022/04/12 02:30:07;;;;;;;;;3.67;2.67;;;;;17.29;48.05;100248.44;4995427;27;45524;-88
2022/04/12 02:32:33;;;;;;;;;3.00;3.00;;;;;17.48;47.95;100286.38;4995679;27;45403;-88
2022/04/12 02:35:00;;;;;;;;;2.00;2.00;;;;;17.34;47.69;100250.75;4995211;27;45321;-88
2022/04/12 02:37:26;;;;;;;;;2.67;2.67;;;;;17.25;47.48;100249.66;4995569;28;45617;-89
2022/04/12 02:39:52;;;;;;;;;2.33;2.33;;;;;17.42;47.38;100283.31;4995303;28;45241;-88
2022/04/12 02:42:17;;;;;;;;;4.00;2.00;;;;;17.45;47.32;100296.56;4952773;28;1197515;-88
2022/04/12 02:44:43;;;;;;;;;2.00;2.00;;;;;17.42;47.72;100294.97;4996675;28;45261;-88
2022/04/12 02:47:08;;;;;;;;;2.00;2.00;;;;;17.49;47.25;100301.59;4996070;27;45312;-88
2022/04/12 02:49:33;;;;;;;;;2.00;2.00;;;;;17.27;47.68;100263.84;4996467;28;45335;-88
2022/04/12 02:51:59;;;;;;;;;3.33;3.00;;;;;17.48;47.60;100290.91;4995566;27;45516;-88
2022/04/12 02:54:24;;;;;;;;;4.00;2.00;;;;;17.46;47.03;100296.41;4996079;27;47848;-88
2022/04/12 02:56:49;;;;;;;;;2.00;2.00;;;;;17.22;47.11;100269.59;4996595;28;48131;-88
2022/04/12 02:59:15;;;;;;;;;3.33;3.33;;;;;17.39;47.21;100307.81;4995681;27;46308;-88
2022/04/12 03:01:40;;;;;;;;;3.33;2.67;;;;;17.37;47.38;100304.38;4996337;28;45241;-88
2022/04/12 03:04:05;;;;;;;;;2.00;2.00;;;;;17.33;47.52;100292.16;4995872;28;45240;-88
2022/04/12 03:06:31;;;;;;;;;2.00;2.00;;;;;17.33;47.56;100294.84;4996692;27;45437;-88
2022/04/12 03:08:56;;;;;;;;;3.00;2.33;;;;;17.26;47.54;100265.69;4996584;28;46473;-88
2022/04/12 03:11:21;;;;;;;;;3.67;3.67;;;;;16.95;47.43;100215.22;4995600;27;47917;-88
2022/04/12 03:13:47;;;;;;;;;1.00;1.00;;;;;17.26;47.59;100256.75;4996124;28;45377;-88
2022/04/12 03:16:12;;;;;;;;;2.00;2.00;;;;;17.22;47.44;100266.06;4994609;27;45484;-87
2022/04/12 03:18:37;;;;;;;;;3.00;3.00;;;;;17.15;47.48;100249.53;4995740;28;46048;-89
2022/04/12 03:21:03;;;;;;;;;3.00;3.00;;;;;16.98;47.53;100234.72;4995730;27;49260;-88
2022/04/12 03:23:28;;;;;;;;;5.00;3.00;;;;;17.11;47.50;100249.88;4995844;28;46555;-89
2022/04/12 03:25:53;;;;;;;;;2.67;2.67;;;;;17.10;47.26;100251.72;4996756;28;45363;-88
2022/04/12 03:28:19;;;;;;;;;2.00;2.00;;;;;16.82;47.27;100218.91;4995379;27;45361;-88
2022/04/12 03:30:44;;;;;;;;;1.33;1.33;;;;;16.86;47.18;100227.59;4996199;27;45368;-89
2022/04/12 03:33:09;;;;;;;;;2.00;2.00;;;;;16.82;47.35;100229.66;4995528;28;45465;-88
2022/04/12 03:35:35;;;;;;;;;1.67;1.67;;;;;17.08;47.58;100268.00;4980371;28;45558;-88
2022/04/12 03:38:01;;;;;;;;;2.00;2.00;;;;;16.76;47.59;100202.34;4995653;27;46217;-88
2022/04/12 03:40:30;;;;;;;;;3.00;3.00;;;;;16.76;47.51;100211.25;4995622;27;45353;-88
2022/04/12 03:43:04;;;;;;;;;4.00;4.00;;;;;16.38;47.28;100163.13;4995411;28;45526;-88
2022/04/12 03:45:30;;;;;;;;;2.00;2.00;;;;;17.10;47.29;100294.81;4995588;27;45638;-88
2022/04/12 03:47:56;;;;;;;;;3.33;3.33;;;;;16.39;47.28;100186.38;4995944;28;46294;-89
2022/04/12 03:50:22;;;;;;;;;4.00;2.33;;;;;17.09;47.10;100306.53;4995461;27;45477;-88
2022/04/12 03:52:49;;;;;;;;;3.00;3.00;;;;;17.09;47.03;100302.03;4994965;28;45370;-88
2022/04/12 03:55:14;;;;;;;;;2.00;2.00;;;;;16.93;47.08;100269.22;4995850;27;45263;-88
2022/04/12 03:57:40;;;;;;;;;3.00;3.00;;;;;17.00;47.08;100283.91;4995367;27;46607;-89
2022/04/12 04:00:08;;;;;;;;;5.33;3.00;;;;;17.01;46.90;100272.16;4995553;28;45439;-88
2022/04/12 04:02:34;;;;;;;;;3.00;3.00;;;;;16.96;46.88;100271.66;4986662;28;45332;-87
2022/04/12 04:05:00;;;;;;;;;2.33;2.33;;;;;16.86;46.79;100265.28;4995710;27;45392;-87
2022/04/12 04:07:27;;;;;;;;;2.00;1.00;;;;;16.68;46.80;100229.84;4995205;27;45488;-88
2022/04/12 04:09:53;;;;;;;;;1.00;1.00;;;;;16.86;47.22;100270.66;4995673;28;45582;-88
2022/04/12 04:12:18;;;;;;;;;3.33;2.67;;;;;16.67;46.81;100238.91;4995561;27;45306;-88
2022/04/12 04:14:44;;;;;;;;;2.00;2.00;;;;;16.84;46.86;100283.38;4995740;28;45440;-88
2022/04/12 04:17:09;;;;;;;;;3.00;2.00;;;;;16.65;46.91;100257.00;4994907;28;46090;-88
2022/04/12 04:19:35;;;;;;;;;2.67;1.00;;;;;16.60;46.56;100251.09;4994753;27;45372;-88
2022/04/12 04:22:01;;;;;;;;;2.67;2.67;;;;;16.78;46.45;100278.44;4995377;27;45335;-89
2022/04/12 04:24:26;;;;;;;;;1.67;1.67;;;;;16.62;46.62;100268.88;4995176;27;45467;-88
2022/04/12 04:26:57;;;;;;;;;2.33;2.00;;;;;16.72;46.42;100282.47;4995577;28;46216;-88
2022/04/12 04:29:32;;;;;;;;;1.33;1.33;;;;;16.54;46.10;100257.81;4995594;27;45402;-88
2022/04/12 04:31:57;;;;;;;;;2.00;2.00;;;;;16.70;45.94;100279.03;4995341;28;45444;-88
2022/04/12 04:34:23;;;;;;;;;2.00;2.00;;;;;16.67;45.75;100306.19;5049250;27;45668;-89
2022/04/12 04:36:48;;;;;;;;;2.00;2.00;;;;;15.46;45.91;100103.75;4994829;28;45529;-89
2022/04/12 04:39:13;;;;;;;;;2.33;2.33;;;;;16.12;46.14;100235.03;4994339;27;57484;-88
2022/04/12 04:41:39;;;;;;;;;3.00;2.00;;;;;16.17;45.71;100246.31;4994311;28;45634;-88
2022/04/12 04:44:04;;;;;;;;;2.00;2.00;;;;;16.56;45.89;100304.31;4995140;27;45559;-88
2022/04/12 04:46:30;;;;;;;;;2.00;2.00;;;;;16.54;45.95;100291.94;4994564;28;46106;-88
2022/04/12 04:48:55;;;;;;;;;2.00;2.00;;;;;16.39;45.54;100275.16;4994878;28;45365;-88
2022/04/12 04:51:20;;;;;;;;;2.00;2.00;;;;;16.55;45.69;100304.41;4994915;28;46102;-88
2022/04/12 04:53:55;;;;;;;;;2.33;2.33;;;;;16.56;45.62;100298.06;4995043;27;45595;-88
2022/04/12 04:56:20;;;;;;;;;2.67;2.67;;;;;16.50;45.53;100298.53;4994570;28;45442;-88
2022/04/12 04:58:46;;;;;;;;;4.00;2.00;;;;;16.45;45.49;100290.81;4994107;27;50244;-88
2022/04/12 05:01:11;;;;;;;;;2.00;2.00;;;;;16.49;45.25;100289.59;4994629;28;45299;-88
2022/04/12 05:03:36;;;;;;;;;2.67;2.00;;;;;16.25;45.45;100260.03;4994486;27;45492;-88
2022/04/12 05:06:02;;;;;;;;;1.00;1.00;;;;;16.51;45.58;100303.81;4994331;27;50256;-89
2022/04/12 05:08:27;;;;;;;;;2.00;2.00;;;;;16.53;45.50;100306.34;4994305;28;45349;-88
2022/04/12 05:10:52;;;;;;;;;3.00;1.00;;;;;16.42;45.46;100307.19;4994207;28;48538;-88
2022/04/12 05:13:18;;;;;;;;;2.00;2.00;;;;;16.18;45.31;100266.84;4994805;28;45409;-88
2022/04/12 05:15:43;;;;;;;;;2.00;1.00;;;;;16.48;45.58;100324.69;4992441;28;47446;-87
2022/04/12 05:18:09;;;;;;;;;1.00;1.00;;;;;16.48;45.22;100327.38;4994361;28;45419;-87
2022/04/12 05:20:34;;;;;;;;;1.00;1.00;;;;;16.40;45.65;100333.34;4994250;28;45431;-87
2022/04/12 05:23:00;;;;;;;;;1.33;1.33;;;;;16.46;45.45;100331.03;4993835;28;45312;-87
2022/04/12 05:25:25;;;;;;;;;2.33;2.00;;;;;16.32;45.73;100304.31;4994375;27;45973;-87
2022/04/12 05:27:51;;;;;;;;;1.00;1.00;;;;;16.45;45.46;100329.31;4993526;28;45370;-88
2022/04/12 05:30:16;;;;;;;;;3.67;1.00;;;;;16.44;45.43;100335.69;5001126;28;45383;-89
2022/04/12 05:32:42;;;;;;;;;1.33;1.33;;;;;16.15;45.66;100294.81;5001504;27;45897;-87
2022/04/12 05:35:08;;;;;;;;;3.00;3.00;;;;;16.30;45.59;100321.56;4993621;27;45383;-87
2022/04/12 05:37:48;;;;;;;;;2.00;2.00;;;;;16.42;46.09;100343.00;4993237;28;45538;-88
2022/04/12 05:40:15;;;;;;;;;4.00;3.33;;;;;16.22;45.83;100298.78;4996062;27;45444;-90
2022/04/12 05:42:41;;;;;;;;;4.00;3.33;;;;;16.21;45.25;100293.50;4993305;28;45809;-87
2022/04/12 05:45:08;;;;;;;;;1.33;1.33;;;;;16.09;45.86;100260.31;5067030;27;47128;-85
2022/04/12 05:47:45;;;;;;;;;7.33;5.33;;;;;16.38;45.41;100297.63;4990751;28;45410;-90
2022/04/12 05:50:13;;;;;;;;;0.00;0.00;;;;;16.61;45.72;100347.84;4994106;27;45436;-86
2022/04/12 05:52:39;;;;;;;;;2.00;2.00;;;;;16.39;45.71;100304.72;4994402;27;45533;-87
2022/04/12 05:55:06;;;;;;;;;4.00;3.00;;;;;16.31;45.31;100288.28;4993268;27;46596;-85
2022/04/12 05:57:34;;;;;;;;;4.00;3.00;;;;;16.71;45.46;100356.09;4994133;28;45437;-85
2022/04/12 06:00:00;;;;;;;;;2.33;2.00;;;;;16.25;45.41;100279.72;5002333;28;45328;-85
2022/04/12 06:02:25;;;;;;;;;3.00;1.00;;;;;16.42;45.36;100296.41;5000127;28;45311;-85
2022/04/12 06:04:50;;;;;;;;;2.00;2.00;;;;;16.78;45.36;100356.50;4993001;28;45602;-85
2022/04/12 06:07:15;;;;;;;;;3.00;3.00;;;;;16.73;45.32;100338.00;4993848;27;45337;-85
2022/04/12 06:09:41;;;;;;;;;2.00;2.00;;;;;16.52;44.96;100307.34;4995066;28;45443;-86
2022/04/12 06:12:06;;;;;;;;;5.33;3.00;;;;;16.70;45.00;100338.25;4999685;28;45769;-86
2022/04/12 06:14:32;;;;;;;;;2.00;2.00;;;;;16.24;45.01;100255.63;4995846;27;48141;-87
2022/04/12 06:16:57;;;;;;;;;2.00;2.00;;;;;16.28;45.05;100262.50;5000253;28;45894;-88
2022/04/12 06:19:22;;;;;;;;;3.00;1.00;;;;;16.80;44.54;100344.66;5001701;28;45405;-91
2022/04/12 06:21:48;;;;;;;;;2.00;2.00;;;;;16.48;44.80;100274.41;4991838;28;45308;-89
2022/04/12 06:24:14;;;;;;;;;5.67;3.00;;;;;16.32;44.51;100255.03;5010995;28;47138;-89
2022/04/12 06:26:39;;;;;;;;;3.00;3.00;;;;;16.51;44.49;100297.56;4996081;28;45308;-88
2022/04/12 06:29:04;;;;;;;;;2.67;2.67;;;;;17.06;44.38;100377.66;4995033;27;45244;-86
2022/04/12 06:31:30;;;;;;;;;2.67;2.67;;;;;15.95;44.01;100187.94;4996881;27;45295;-87
2022/04/12 06:33:55;;;;;;;;;2.33;2.33;;;;;16.70;43.98;100305.09;4996421;27;45305;-86
2022/04/12 06:36:20;;;;;;;;;0.33;0.33;;;;;16.47;43.54;100275.41;4995937;27;45234;-87
2022/04/12 06:38:46;;;;;;;;;1.33;1.33;;;;;16.96;43.47;100373.97;4996454;27;45331;-86
2022/04/12 06:41:11;;;;;;;;;1.00;1.00;;;;;16.68;43.23;100332.97;4994678;27;45450;-89
2022/04/12 06:43:37;;;;;;;;;3.33;2.00;;;;;16.69;43.28;100349.97;4995458;28;45435;-87
2022/04/12 06:46:02;;;;;;;;;2.00;2.00;;;;;16.77;43.46;100365.56;4995851;28;45434;-87
2022/04/12 06:48:28;;;;;;;;;2.00;2.00;;;;;16.09;44.00;100262.16;4996658;28;45320;-87
2022/04/12 06:50:54;;;;;;;;;2.00;1.00;;;;;16.40;43.66;100314.50;4995158;27;45624;-87
2022/04/12 06:53:20;;;;;;;;;2.00;2.00;;;;;16.84;43.69;100391.91;4994366;28;47340;-87
2022/04/12 06:55:45;;;;;;;;;3.00;2.00;;;;;16.59;43.63;100352.50;5011596;28;45317;-87
2022/04/12 06:58:10;;;;;;;;;1.33;1.33;;;;;16.98;43.81;100425.88;4996884;27;45361;-88
2022/04/12 07:00:36;;;;;;;;;2.33;2.33;;;;;16.93;43.83;100421.78;4996376;27;45398;-87
2022/04/12 07:03:02;;;;;;;;;2.33;2.00;;;;;16.44;43.74;100337.50;4994459;27;47380;-87
2022/04/12 07:05:27;;;;;;;;;3.00;3.00;;;;;16.79;43.97;100401.31;4995509;28;45542;-87
2022/04/12 07:07:54;;;;;;;;;2.00;2.00;;;;;16.24;43.73;100294.13;4996181;27;45464;-88
2022/04/12 07:10:20;;;;;;;;;3.00;2.00;;;;;16.23;43.41;100292.41;4996006;28;45358;-88
2022/04/12 07:12:46;;;;;;;;;2.00;2.00;;;;;16.42;43.79;100328.69;4995836;27;46447;-87
2022/04/12 07:15:14;;;;;;;;;1.00;1.00;;;;;16.96;43.23;100421.56;4996033;27;45221;-87
2022/04/12 07:17:39;;;;;;;;;2.00;2.00;;;;;17.19;43.45;100446.75;4995545;28;45353;-85
2022/04/12 07:20:05;;;;;;;;;3.67;3.00;;;;;17.09;43.40;100436.69;4996490;27;45374;-85
2022/04/12 07:22:31;;;;;;;;;2.00;2.00;;;;;17.25;42.96;100460.59;4997932;28;45585;-84
2022/04/12 07:25:00;;;;;;;;;2.33;2.33;;;;;17.31;43.79;100461.97;5014432;27;45393;-84
2022/04/12 07:27:26;;;;;;;;;2.67;1.67;;;;;17.09;42.29;100415.16;4995179;28;45418;-84
2022/04/12 07:29:51;;;;;;;;;3.33;3.33;;;;;17.38;43.04;100451.59;4994997;27;45556;-85
2022/04/12 07:32:16;;;;;;;;;2.00;2.00;;;;;17.21;42.75;100413.34;4995721;28;45781;-85
2022/04/12 07:34:42;;;;;;;;;3.00;3.00;;;;;17.44;42.42;100434.94;4995321;28;47692;-84
2022/04/12 07:37:08;;;;;;;;;1.00;1.00;;;;;17.54;42.04;100445.88;4995877;28;45480;-85
2022/04/12 07:39:33;;;;;;;;;2.00;2.00;;;;;17.41;42.06;100427.94;4996443;28;45611;-85
2022/04/12 07:41:59;;;;;;;;;3.00;3.00;;;;;17.29;42.19;100401.97;4995025;28;46203;-85
2022/04/12 07:44:24;;;;;;;;;3.00;2.00;;;;;17.64;42.30;100453.13;4995438;28;45527;-84
2022/04/12 07:46:50;;;;;;;;;1.67;1.67;;;;;17.69;41.89;100450.91;4995248;28;45913;-85
2022/04/12 07:49:16;;;;;;;;;1.33;1.33;;;;;17.52;41.83;100401.03;4995912;27;45695;-84
2022/04/12 07:51:41;;;;;;;;;1.00;1.00;;;;;17.58;41.85;100406.91;4995387;28;45475;-84
2022/04/12 07:54:07;;;;;;;;;2.00;2.00;;;;;17.93;41.80;100445.47;4995299;27;46792;-85
2022/04/12 07:56:33;;;;;;;;;3.00;3.00;;;;;17.88;41.57;100441.41;4995707;27;45402;-85
2022/04/12 07:58:58;;;;;;;;;3.33;1.67;;;;;18.08;41.54;100451.47;4995574;27;45478;-85
2022/04/12 08:01:23;;;;;;;;;1.00;1.00;;;;;18.17;41.17;100460.69;4995410;28;45489;-85
2022/04/12 08:03:49;;;;;;;;;1.00;1.00;;;;;18.09;40.95;100422.66;5010776;27;45400;-85
2022/04/12 08:06:14;;;;;;;;;2.33;2.33;;;;;18.29;40.81;100451.59;4995700;27;45704;-85
2022/04/12 08:08:40;;;;;;;;;1.00;1.00;;;;;18.10;41.44;100392.88;4995803;28;45568;-85
2022/04/12 08:11:07;;;;;;;;;2.33;2.33;;;;;18.22;41.12;100388.31;4995230;28;45493;-85
2022/04/12 08:13:33;;;;;;;;;1.33;1.33;;;;;18.53;40.59;100412.78;4995501;27;45379;-85
2022/04/12 08:15:58;;;;;;;;;2.33;2.00;;;;;18.81;40.94;100429.44;4995606;28;45361;-85
2022/04/12 08:18:24;;;;;;;;;2.33;1.67;;;;;19.08;40.28;100434.34;4995806;27;45554;-85
2022/04/12 08:20:49;;;;;;;;;1.00;1.00;;;;;19.26;39.35;100399.53;4995095;27;45464;-85
2022/04/12 08:23:16;;;;;;;;;1.67;1.67;;;;;19.86;38.01;100430.38;4995359;28;45544;-85
2022/04/12 08:25:41;;;;;;;;;2.00;2.00;;;;;20.03;37.66;100372.91;4995688;27;45430;-85
2022/04/12 08:28:07;;;;;;;;;3.33;1.00;;;;;20.86;36.67;100426.81;4995849;27;45247;-85
2022/04/12 08:30:32;;;;;;;;;3.33;1.00;;;;;21.36;35.93;100407.69;4995549;28;46355;-85
2022/04/12 08:32:57;;;;;;;;;1.33;1.33;;;;;22.16;34.50;100442.63;4995002;27;45234;-85
2022/04/12 08:35:23;;;;;;;;;3.00;1.00;;;;;22.65;34.38;100422.38;4995581;27;45449;-85
2022/04/12 08:37:48;;;;;;;;;3.00;1.00;;;;;23.05;33.61;100421.09;4995256;28;45365;-85
2022/04/12 08:40:14;;;;;;;;;2.67;1.00;;;;;23.44;32.49;100428.91;4994688;28;46144;-86
2022/04/12 08:42:40;;;;;;;;;2.00;1.00;;;;;23.23;31.86;100342.25;4995216;28;45454;-87
2022/04/12 08:45:06;;;;;;;;;1.33;1.33;;;;;23.88;31.86;100417.16;4993969;28;45279;-87
2022/04/12 08:47:35;;;;;;;;;3.33;1.67;;;;;24.01;31.63;100431.19;4994396;28;45308;-85
2022/04/12 08:50:03;;;;;;;;;1.33;1.33;;;;;24.12;30.89;100420.00;4994858;28;45423;-86
2022/04/12 08:52:29;;;;;;;;;0.00;0.00;;;;;23.98;30.46;100394.25;4994927;28;45549;-86
2022/04/12 08:54:55;;;;;;;;;1.00;1.00;;;;;23.92;31.07;100396.75;4995220;28;45382;-86
2022/04/12 08:57:20;;;;;;;;;1.33;1.33;;;;;23.81;30.84;100397.88;4994242;28;45471;-86
2022/04/12 08:59:47;;;;;;;;;1.00;1.00;;;;;23.90;31.38;100407.78;4994526;28;45499;-86
2022/04/12 09:02:12;;;;;;;;;3.00;2.00;;;;;23.92;30.19;100396.75;4994966;28;45305;-86
2022/04/12 09:04:38;;;;;;;;;1.00;0.00;;;;;24.11;31.70;100431.91;4995379;28;45555;-86
2022/04/12 09:07:08;;;;;;;;;0.00;0.00;;;;;24.12;31.36;100376.44;4995057;28;45565;-86
2022/04/12 09:09:34;;;;;;;;;0.00;0.00;;;;;24.64;30.57;100421.75;4994882;28;45295;-86
2022/04/12 09:12:09;;;;;;;;;1.67;1.00;;;;;24.61;30.09;100425.66;4994459;28;45417;-86
2022/04/12 09:14:43;;;;;;;;;0.00;0.00;;;;;24.71;29.94;100411.88;4993892;28;45279;-86
2022/04/12 09:17:11;;;;;;;;;2.00;2.00;;;;;24.53;29.68;100357.50;4995039;28;45386;-86
2022/04/12 09:19:43;;;;;;;;;0.33;0.33;;;;;24.81;29.79;100360.78;4994849;28;45257;-86
2022/04/12 09:22:14;;;;;;;;;2.33;2.33;;;;;25.23;29.90;100411.63;4994728;28;45244;-86
2022/04/12 09:24:45;;;;;;;;;1.00;1.00;;;;;25.33;29.68;100414.16;4994811;28;45486;-86
2022/04/12 09:27:12;;;;;;;;;1.67;1.00;;;;;25.40;29.44;100385.22;4994701;28;45483;-86
2022/04/12 09:29:43;;;;;;;;;1.00;1.00;;;;;25.46;29.70;100357.22;4994717;28;46220;-86
2022/04/12 09:32:13;;;;;;;;;1.00;1.00;;;;;25.95;28.95;100399.94;4994313;27;45561;-86
2022/04/12 09:34:39;;;;;;;;;0.00;0.00;;;;;25.68;28.37;100330.19;4994693;27;45454;-86
2022/04/12 09:37:18;;;;;;;;;0.33;0.33;;;;;26.28;28.88;100389.72;4994655;28;45239;-86
2022/04/12 09:40:04;;;;;;;;;2.33;1.33;;;;;26.52;28.52;100394.22;4993331;28;48344;-86
2022/04/12 09:42:43;;;;;;;;;2.00;0.67;;;;;26.76;27.97;100405.22;4994389;28;45390;-86
2022/04/12 09:45:15;;;;;;;;;1.33;1.00;;;;;27.01;28.51;100395.78;4994223;28;45715;-86
2022/04/12 09:47:42;;;;;;;;;0.00;0.00;;;;;27.23;27.05;100398.72;4994974;28;45365;-86
2022/04/12 09:50:09;;;;;;;;;0.00;0.00;;;;;27.35;26.57;100383.59;4993578;27;46359;-86
2022/04/12 09:52:34;;;;;;;;;0.00;0.00;;;;;27.58;27.04;100388.97;4995796;28;45743;-86
2022/04/12 09:55:00;;;;;;;;;1.00;1.00;;;;;27.47;27.18;100321.03;4997347;27;45304;-87
2022/04/12 09:57:25;;;;;;;;;2.67;1.00;;;;;28.08;26.32;100378.38;4997935;28;45329;-86
2022/04/12 09:59:55;;;;;;;;;0.67;0.67;;;;;28.41;25.89;100390.59;4997078;27;46202;-86
2022/04/12 10:02:22;;;;;;;;;0.67;0.00;;;;;28.67;25.95;100369.19;4997543;28;45248;-86
2022/04/12 10:04:50;;;;;;;;;0.00;0.00;;;;;28.99;24.98;100395.28;4997863;27;45429;-86
2022/04/12 10:07:18;;;;;;;;;2.00;2.00;;;;;29.15;24.49;100394.16;4996246;28;45386;-86
2022/04/12 10:09:44;;;;;;;;;0.00;0.00;;;;;29.18;24.54;100363.59;4997175;28;45528;-86
2022/04/12 10:12:10;;;;;;;;;2.00;1.00;;;;;29.61;24.35;100382.72;4996650;27;45492;-86
2022/04/12 10:14:36;;;;;;;;;3.00;1.00;;;;;29.38;24.00;100317.91;4997233;27;45314;-86
2022/04/12 10:17:02;;;;;;;;;0.00;0.00;;;;;29.36;24.37;100336.50;4997303;27;45392;-86
2022/04/12 10:19:31;;;;;;;;;2.00;1.00;;;;;29.34;24.83;100359.72;4997074;27;45500;-86
2022/04/12 10:21:57;;;;;;;;;2.00;1.00;;;;;29.28;25.06;100358.59;4996515;27;45534;-86
2022/04/12 10:24:23;;;;;;;;;1.00;1.00;;;;;28.78;25.26;100280.91;4997273;28;45373;-86
2022/04/12 10:26:50;;;;;;;;;1.00;1.00;;;;;29.10;24.64;100344.50;4997740;28;45253;-86
2022/04/12 10:29:16;;;;;;;;;1.33;1.33;;;;;29.03;24.79;100341.66;4996418;28;45385;-86
2022/04/12 10:32:00;;;;;;;;;2.00;2.00;;;;;28.94;24.83;100321.78;4991712;27;45638;-87
2022/04/12 10:34:25;;;;;;;;;1.00;1.00;;;;;28.77;25.03;100276.44;5003906;28;45455;-88
2022/04/12 10:37:09;;;;;;;;;3.67;0.67;;;;;29.22;24.46;100332.81;5001802;28;45417;-86
2022/04/12 10:39:47;;;;;;;;;1.33;1.33;;;;;29.04;24.72;100283.00;4996542;28;46591;-87
2022/04/12 10:42:18;;;;;;;;;2.00;1.00;;;;;29.04;24.98;100316.78;5014036;28;45549;-87
2022/04/12 10:44:46;;;;;;;;;1.00;1.00;;;;;28.61;25.72;100310.47;5015817;28;45298;-86
2022/04/12 10:47:31;;;;;;;;;1.33;1.33;;;;;28.67;25.43;100370.03;4997120;28;45399;-87
2022/04/12 10:49:59;;;;;;;;;3.00;2.00;;;;;28.40;25.49;100374.31;4996462;28;46263;-88
2022/04/12 10:52:42;;;;;;;;;1.00;1.00;;;;;28.16;25.69;100361.81;4995064;28;45872;-88
2022/04/12 10:55:14;;;;;;;;;1.00;1.00;;;;;28.72;25.74;100374.94;4995266;28;45551;-88
2022/04/12 10:57:40;;;;;;;;;4.67;1.33;;;;;29.15;25.00;100285.25;4996911;28;45310;-87
2022/04/12 11:00:14;;;;;;;;;1.00;1.00;;;;;30.37;24.02;100368.16;4995949;28;46738;-88
2022/04/12 11:02:56;;;;;;;;;1.00;1.00;;;;;31.13;23.22;100368.75;4995057;28;45484;-88
2022/04/12 11:05:33;;;;;;;;;1.00;1.00;;;;;31.79;23.40;100377.22;4996386;28;45446;-86
2022/04/12 11:08:00;;;;;;;;;1.00;1.00;;;;;32.23;21.87;100393.00;4996911;28;45386;-88
2022/04/12 11:10:26;;;;;;;;;1.00;1.00;;;;;32.13;22.15;100326.44;4996244;28;46078;-87
2022/04/12 11:13:11;;;;;;;;;1.67;0.67;;;;;32.76;21.96;100369.88;4995239;28;45234;-86
2022/04/12 11:15:38;;;;;;;;;2.33;2.00;;;;;33.18;20.58;100406.13;4996358;28;45242;-86
2022/04/12 11:18:10;;;;;;;;;0.33;0.33;;;;;32.97;21.29;100405.38;4996713;28;45389;-88
2022/04/12 11:20:36;;;;;;;;;1.00;1.00;;;;;32.71;21.47;100369.66;5011438;28;47349;-94
2022/04/12 11:23:11;;;;;;;;;1.00;1.00;;;;;32.36;21.38;100346.06;4995843;28;45267;-93
2022/04/12 11:25:50;;;;;;;;;2.00;2.00;;;;;32.01;21.61;100400.72;5011776;28;45392;-91